Time;durP1;ratioP1;P1;durP2;ratioP2;P2;SDS_P1;SDS_P2;PMS_P1;PMS_P2;Temp;Humidity;BMP_temperature;BMP_pressure;BME280_temperature;BME280_humidity;BME280_pressure;Samples;Min_cycle;Max_cycle;Signal;HPM_P1;HPM_P2
2022/03/29 00:00:19;;;;;;;37.80;16.67;;;;;;;19.43;40.38;101846.78;5031645;28;20029;-71
2022/03/29 00:02:45;;;;;;;39.53;19.40;;;;;;;20.08;39.68;101842.03;5030157;28;20026;-71
2022/03/29 00:05:11;;;;;;;41.97;19.03;;;;;;;19.27;41.52;101834.91;5031231;28;20120;-71
2022/03/29 00:07:36;;;;;;;41.27;19.07;;;;;;;20.92;38.33;101825.84;5043373;28;20034;-70
2022/03/29 00:10:06;;;;;;;43.17;19.07;;;;;;;21.02;38.29;101819.25;5019560;28;20029;-70
2022/03/29 00:12:36;;;;;;;45.00;19.43;;;;;;;20.31;39.63;101821.81;5031159;28;20037;-71
2022/03/29 00:15:02;;;;;;;41.30;18.53;;;;;;;20.41;39.39;101820.56;5031090;28;20397;-71
2022/03/29 00:17:28;;;;;;;38.87;18.40;;;;;;;21.01;38.19;101815.72;5029054;28;20029;-71
2022/03/29 00:19:53;;;;;;;43.87;19.27;;;;;;;21.11;38.02;101813.56;5041022;28;20477;-70
2022/03/29 00:22:19;;;;;;;40.50;19.70;;;;;;;20.75;38.01;101808.72;5029257;28;20056;-71
2022/03/29 00:24:44;;;;;;;40.93;18.63;;;;;;;20.34;38.83;101803.13;5040813;28;20055;-71
2022/03/29 00:27:10;;;;;;;42.43;17.70;;;;;;;18.68;43.05;101806.59;5030413;28;20033;-71
2022/03/29 00:29:37;;;;;;;39.83;18.87;;;;;;;20.15;39.74;101798.47;5028508;28;20489;-71
2022/03/29 00:32:02;;;;;;;41.90;19.90;;;;;;;20.21;39.44;101783.22;5029682;28;20029;-71
2022/03/29 00:34:28;;;;;;;40.40;18.07;;;;;;;20.58;39.09;101788.09;5029186;28;20562;-71
2022/03/29 00:36:53;;;;;;;42.40;19.13;;;;;;;20.19;39.53;101787.75;5012605;28;20029;-70
2022/03/29 00:39:19;;;;;;;47.33;19.93;;;;;;;19.31;41.17;101778.25;5029018;28;20030;-70
2022/03/29 00:41:44;;;;;;;43.00;19.07;;;;;;;20.09;39.85;101769.47;5028476;28;20525;-71
2022/03/29 00:44:09;;;;;;;37.77;17.60;;;;;;;20.55;38.88;101766.94;5028782;28;20033;-71
2022/03/29 00:46:35;;;;;;;44.40;19.00;;;;;;;20.93;38.06;101766.47;5030336;28;20029;-71
2022/03/29 00:49:00;;;;;;;43.03;20.27;;;;;;;21.21;37.33;101770.69;5029380;28;20179;-71
2022/03/29 00:51:27;;;;;;;42.93;18.93;;;;;;;20.24;39.17;101762.75;5029929;28;20065;-70
2022/03/29 00:53:53;;;;;;;42.60;20.33;;;;;;;20.99;37.91;101755.56;5029439;28;20547;-71
2022/03/29 00:56:21;;;;;;;44.27;19.90;;;;;;;20.44;38.81;101764.72;5029024;28;20021;-71
2022/03/29 00:58:48;;;;;;;44.40;18.47;;;;;;;19.87;40.29;101764.06;5030000;28;20037;-71
2022/03/29 01:01:15;;;;;;;43.93;19.53;;;;;;;20.26;39.52;101768.00;5030258;28;20116;-71
2022/03/29 01:03:44;;;;;;;40.83;19.40;;;;;;;21.14;37.63;101770.94;5030467;28;20080;-71
2022/03/29 01:06:09;;;;;;;43.20;18.13;;;;;;;21.37;37.20;101763.81;5028087;28;20036;-71
2022/03/29 01:08:35;;;;;;;41.13;19.77;;;;;;;20.78;38.20;101771.41;5028788;28;20037;-71
2022/03/29 01:11:12;;;;;;;44.93;19.67;;;;;;;20.38;38.65;101770.22;5028725;28;20040;-71
2022/03/29 01:13:38;;;;;;;42.47;19.37;;;;;;;20.82;37.91;101762.41;5029429;28;20488;-71
2022/03/29 01:18:48;;;;;;;46.37;19.53;;;;;;;20.90;37.93;101761.28;5030296;28;20091;-71
2022/03/29 01:21:20;;;;;;;46.43;19.20;;;;;;;21.42;37.20;101752.97;5028213;28;20041;-71
2022/03/29 01:23:47;;;;;;;46.83;21.88;;;;;;;21.13;37.38;101747.94;5028747;28;20029;-71
2022/03/29 01:26:15;;;;;;;44.57;21.60;;;;;;;21.27;37.11;101747.38;5028203;28;20028;-71
2022/03/29 01:28:41;;;;;;;40.73;18.73;;;;;;;21.15;37.20;101746.06;5031464;28;20035;-71
2022/03/29 01:31:07;;;;;;;46.73;20.73;;;;;;;20.90;37.65;101734.69;5035717;28;20393;-71
2022/03/29 01:33:33;;;;;;;43.43;18.50;;;;;;;21.06;37.85;101734.94;5029992;28;20028;-71
2022/03/29 01:36:00;;;;;;;41.87;18.97;;;;;;;19.52;40.04;101746.66;5029945;28;20423;-71
2022/03/29 01:38:25;;;;;;;43.43;19.47;;;;;;;19.91;39.61;101743.59;5029633;28;20045;-71
2022/03/29 01:40:50;;;;;;;42.37;18.73;;;;;;;20.42;38.53;101745.28;5029954;28;20034;-71
2022/03/29 01:43:16;;;;;;;50.40;20.90;;;;;;;20.65;38.20;101736.47;5027763;28;20022;-71
2022/03/29 01:45:41;;;;;;;43.33;18.97;;;;;;;20.12;39.14;101732.22;5028276;28;20556;-71
2022/03/29 01:48:07;;;;;;;43.27;19.50;;;;;;;20.17;39.57;101734.72;5027772;28;20025;-71
2022/03/29 01:50:32;;;;;;;49.43;20.70;;;;;;;21.10;37.36;101726.81;5028574;28;20079;-71
2022/03/29 01:52:58;;;;;;;46.77;19.67;;;;;;;20.73;37.79;101727.38;5029918;28;20469;-71
2022/03/29 01:55:23;;;;;;;40.83;18.73;;;;;;;20.41;39.00;101724.97;5033257;28;20025;-71
2022/03/29 01:57:50;;;;;;;47.93;20.17;;;;;;;20.93;37.68;101721.28;5032603;28;20133;-71
2022/03/29 02:00:32;;;;;;;46.83;20.73;;;;;;;20.06;39.16;101729.78;5031122;28;20109;-71
2022/03/29 02:02:59;;;;;;;48.47;20.20;;;;;;;20.66;38.04;101716.97;5049457;28;20064;-71
2022/03/29 02:05:25;;;;;;;48.87;19.40;;;;;;;20.55;37.98;101712.97;5031647;28;20922;-71
2022/03/29 02:07:50;;;;;;;47.50;20.33;;;;;;;20.61;38.24;101704.78;5032957;28;20099;-71
2022/03/29 02:10:17;;;;;;;48.80;20.97;;;;;;;19.86;39.50;101708.41;5031642;28;20025;-71
2022/03/29 02:12:44;;;;;;;41.90;18.23;;;;;;;20.51;38.53;101701.59;5015866;28;20025;-71
2022/03/29 02:15:09;;;;;;;44.67;19.97;;;;;;;19.65;39.88;101692.28;5030604;28;20317;-71
2022/03/29 02:17:35;;;;;;;44.40;20.03;;;;;;;20.94;37.84;101688.47;5034067;28;20033;-71
2022/03/29 02:20:00;;;;;;;47.17;20.17;;;;;;;20.77;37.39;101692.66;5033537;28;20029;-71
2022/03/29 02:22:25;;;;;;;50.37;21.43;;;;;;;19.45;39.34;101693.84;5032505;28;20179;-71
2022/03/29 02:24:52;;;;;;;47.43;19.63;;;;;;;19.43;40.02;101687.72;5031869;28;20026;-71
2022/03/29 02:27:17;;;;;;;46.53;19.63;;;;;;;19.48;39.85;101696.38;5031533;28;20478;-71
2022/03/29 02:29:43;;;;;;;46.60;19.87;;;;;;;20.45;38.38;101684.09;5045229;28;20075;-71
2022/03/29 02:32:08;;;;;;;50.40;20.60;;;;;;;20.46;38.48;101677.03;5051205;28;20035;-71
2022/03/29 02:34:34;;;;;;;50.03;19.63;;;;;;;20.67;37.61;101675.31;5038825;28;20036;-71
2022/03/29 02:36:59;;;;;;;49.13;19.67;;;;;;;20.60;37.80;101668.53;5031008;28;20393;-71
2022/03/29 02:39:25;;;;;;;48.13;19.83;;;;;;;20.30;38.28;101671.41;5031524;28;20474;-71
2022/03/29 02:41:50;;;;;;;53.00;19.77;;;;;;;19.40;40.29;101671.91;5031974;28;20021;-71
2022/03/29 02:44:16;;;;;;;52.93;19.93;;;;;;;19.65;39.32;101668.41;5031803;28;20091;-71
2022/03/29 02:46:42;;;;;;;51.10;19.47;;;;;;;19.89;38.83;101663.19;5033186;28;20036;-70
2022/03/29 02:49:08;;;;;;;44.90;18.23;;;;;;;20.10;38.61;101654.47;5030214;28;20022;-70
2022/03/29 02:51:33;;;;;;;44.17;19.20;;;;;;;20.48;38.15;101659.22;5032670;28;20048;-70
2022/03/29 02:53:58;;;;;;;51.07;21.07;;;;;;;19.60;38.68;101655.31;5030644;28;20484;-71
2022/03/29 02:56:24;;;;;;;45.40;17.63;;;;;;;19.21;39.97;101654.91;5031401;28;20112;-71
2022/03/29 02:58:49;;;;;;;48.00;19.20;;;;;;;19.33;39.64;101649.19;5043084;28;20507;-71
2022/03/29 03:01:14;;;;;;;41.17;17.97;;;;;;;19.40;39.41;101647.16;5030590;28;20063;-71
2022/03/29 03:03:39;;;;;;;45.43;18.80;;;;;;;19.42;40.09;101646.19;5040202;28;20025;-71
2022/03/29 03:06:05;;;;;;;48.07;18.63;;;;;;;20.07;38.35;101638.66;5034373;28;20072;-71
2022/03/29 03:08:30;;;;;;;50.50;19.20;;;;;;;20.00;39.03;101638.00;5030339;28;20382;-70
2022/03/29 03:10:56;;;;;;;41.90;18.37;;;;;;;19.07;40.18;101637.69;5032011;28;20029;-71
2022/03/29 03:13:21;;;;;;;45.03;18.10;;;;;;;20.06;38.15;101636.91;5031438;28;20144;-71
2022/03/29 03:15:47;;;;;;;49.00;19.77;;;;;;;19.55;39.19;101629.88;5032035;28;20147;-71
2022/03/29 03:18:13;;;;;;;47.90;19.70;;;;;;;20.40;37.19;101633.00;5031168;28;20022;-71
2022/03/29 03:20:38;;;;;;;47.20;18.77;;;;;;;19.98;37.92;101633.69;5030170;28;20472;-71
2022/03/29 03:23:06;;;;;;;46.77;18.90;;;;;;;20.68;36.70;101634.59;5011063;28;20029;-71
2022/03/29 03:25:32;;;;;;;47.47;19.13;;;;;;;20.35;36.94;101627.00;5030317;28;20033;-71
2022/03/29 03:27:57;;;;;;;48.87;18.90;;;;;;;20.10;37.82;101621.72;5031996;28;20025;-71
2022/03/29 03:30:22;;;;;;;40.67;17.60;;;;;;;19.86;38.31;101628.81;5030212;28;20034;-71
2022/03/29 03:32:48;;;;;;;43.87;18.47;;;;;;;20.59;36.74;101624.28;5030562;28;20071;-71
2022/03/29 03:35:14;;;;;;;40.90;17.03;;;;;;;20.14;37.82;101621.56;5029401;28;20029;-71
2022/03/29 03:37:40;;;;;;;47.20;19.20;;;;;;;20.45;37.37;101616.88;5030718;28;20032;-71
2022/03/29 03:40:08;;;;;;;50.90;19.37;;;;;;;19.69;38.39;101608.16;5030876;28;20031;-71
2022/03/29 03:42:35;;;;;;;50.00;19.23;;;;;;;19.12;39.41;101616.31;4997881;28;20030;-71
2022/03/29 03:45:02;;;;;;;49.03;17.90;;;;;;;19.41;38.84;101612.69;5030226;28;20037;-71
2022/03/29 03:47:27;;;;;;;40.90;17.17;;;;;;;18.62;40.39;101611.72;5030130;28;20116;-71
2022/03/29 03:49:53;;;;;;;43.53;17.57;;;;;;;18.60;40.70;101608.22;5044209;28;20607;-71
2022/03/29 03:52:18;;;;;;;44.33;16.47;;;;;;;18.87;40.19;101605.63;5030467;28;20031;-71
2022/03/29 03:54:44;;;;;;;47.60;17.83;;;;;;;18.90;40.36;101594.97;5029585;28;20025;-71
2022/03/29 03:57:09;;;;;;;39.60;16.97;;;;;;;18.84;40.78;101589.84;5030645;28;20068;-70
2022/03/29 03:59:35;;;;;;;45.47;17.77;;;;;;;18.84;40.18;101584.56;5030258;28;20024;-71
2022/03/29 04:02:01;;;;;;;44.03;19.17;;;;;;;17.76;43.58;101586.00;5029649;28;20018;-71
2022/03/29 04:04:26;;;;;;;40.43;17.63;;;;;;;18.46;41.30;101579.56;5048712;28;20369;-70
2022/03/29 04:06:51;;;;;;;50.03;18.93;;;;;;;18.37;42.18;101578.06;5030175;28;20041;-71
2022/03/29 04:09:20;;;;;;;42.33;16.63;;;;;;;17.34;43.56;101581.84;5031172;28;20032;-70
2022/03/29 04:11:46;;;;;;;47.47;17.27;;;;;;;17.60;43.56;101577.66;5030943;28;20032;-71
2022/03/29 04:14:11;;;;;;;44.10;18.83;;;;;;;17.56;44.27;101581.28;5029271;28;20025;-71
2022/03/29 04:16:36;;;;;;;50.93;18.67;;;;;;;19.30;39.94;101569.75;5028359;28;20029;-71
2022/03/29 04:19:02;;;;;;;50.83;18.20;;;;;;;18.61;40.58;101567.63;5032920;28;20025;-71
2022/03/29 04:21:28;;;;;;;47.50;17.07;;;;;;;17.88;42.76;101572.41;5033375;28;20037;-70
2022/03/29 04:23:53;;;;;;;49.23;17.83;;;;;;;18.57;41.23;101571.28;5029674;28;20045;-71
2022/03/29 04:26:19;;;;;;;46.70;18.00;;;;;;;18.17;42.21;101573.38;5030461;28;20390;-71
2022/03/29 04:28:45;;;;;;;51.13;18.50;;;;;;;17.80;43.21;101559.44;5030714;28;20021;-71
2022/03/29 04:31:10;;;;;;;50.40;18.70;;;;;;;17.66;43.29;101564.25;5028617;28;20381;-70
2022/03/29 04:33:37;;;;;;;42.87;16.53;;;;;;;17.70;43.03;101557.97;5029807;28;20036;-71
2022/03/29 04:36:03;;;;;;;42.07;16.33;;;;;;;17.81;42.69;101552.38;5030166;28;20439;-71
2022/03/29 04:38:28;;;;;;;50.47;17.27;;;;;;;17.02;43.94;101567.72;5030247;28;20033;-71
2022/03/29 04:40:53;;;;;;;46.83;18.43;;;;;;;17.37;43.37;101560.63;5029582;28;20071;-71
2022/03/29 04:43:19;;;;;;;42.50;17.00;;;;;;;17.12;43.90;101561.28;5028336;28;20029;-71
2022/03/29 04:45:44;;;;;;;42.77;16.97;;;;;;;17.36;44.11;101553.59;5029464;28;20021;-71
2022/03/29 04:48:11;;;;;;;44.30;17.33;;;;;;;18.03;42.33;101549.97;5012736;28;20026;-71
2022/03/29 04:50:37;;;;;;;46.80;17.13;;;;;;;17.09;44.42;101553.44;5028853;28;20030;-71
2022/03/29 04:53:03;;;;;;;54.13;18.83;;;;;;;18.22;42.25;101544.16;5028878;28;20044;-71
2022/03/29 04:55:28;;;;;;;46.10;17.03;;;;;;;18.30;42.00;101539.50;5042347;28;20102;-71
2022/03/29 04:57:53;;;;;;;45.40;17.77;;;;;;;17.76;43.29;101541.03;5028323;28;20048;-71
2022/03/29 05:00:22;;;;;;;48.10;17.50;;;;;;;17.96;42.29;101544.00;5028530;28;20033;-71
2022/03/29 05:02:48;;;;;;;50.43;18.20;;;;;;;17.97;42.19;101536.97;5030557;28;20028;-71
2022/03/29 05:05:14;;;;;;;48.37;18.10;;;;;;;18.21;41.54;101537.13;5028175;28;20139;-72
2022/03/29 05:07:41;;;;;;;47.73;17.80;;;;;;;17.95;42.81;101536.13;5028838;28;20428;-71
2022/03/29 05:10:08;;;;;;;52.43;18.97;;;;;;;18.96;40.66;101536.50;5028940;28;20062;-71
2022/03/29 05:12:51;;;;;;;50.77;17.97;;;;;;;19.03;40.49;101542.44;5028656;28;20032;-71
2022/03/29 05:15:19;;;;;;;51.20;18.43;;;;;;;19.65;39.62;101533.19;5030082;28;20358;-71
2022/03/29 05:17:45;;;;;;;51.77;18.47;;;;;;;18.75;40.83;101538.94;5029346;28;20018;-71
2022/03/29 05:20:12;;;;;;;56.37;19.93;;;;;;;17.02;44.44;101543.06;5028355;28;20547;-71
2022/03/29 05:22:51;;;;;;;53.00;18.87;;;;;;;17.77;43.33;101538.34;5029384;28;20044;-71
2022/03/29 05:25:19;;;;;;;50.40;17.83;;;;;;;16.92;45.03;101532.72;5010198;28;20034;-71
2022/03/29 05:27:46;;;;;;;49.53;18.37;;;;;;;18.11;42.80;101526.81;5030109;28;20025;-71
2022/03/29 05:30:13;;;;;;;51.77;19.30;;;;;;;18.95;40.91;101524.16;5033957;28;20128;-71
2022/03/29 05:32:39;;;;;;;52.57;19.97;;;;;;;17.71;42.92;101522.69;5024297;28;20400;-71
2022/03/29 05:35:08;;;;;;;47.37;18.00;;;;;;;16.90;44.43;101534.53;5035493;28;20026;-71
2022/03/29 05:37:34;;;;;;;52.40;18.33;;;;;;;18.51;41.86;101529.13;5032948;28;20075;-71
2022/03/29 05:40:00;;;;;;;56.97;19.67;;;;;;;18.71;41.20;101526.69;5032174;28;20049;-71
2022/03/29 05:42:25;;;;;;;61.47;20.13;;;;;;;18.18;42.18;101526.63;5032923;28;20535;-71
2022/03/29 05:44:54;;;;;;;52.23;19.27;;;;;;;18.36;41.69;101528.69;5033455;28;20022;-71
2022/03/29 05:50:03;;;;;;;51.27;18.43;;;;;;;18.40;41.89;101532.13;5035715;28;20085;-71
2022/03/29 05:52:29;;;;;;;51.77;18.70;;;;;;;19.07;40.58;101529.03;5039116;28;20131;-72
2022/03/29 05:54:54;;;;;;;54.63;19.83;;;;;;;17.68;42.53;101543.03;5031945;28;20037;-71
2022/03/29 05:57:20;;;;;;;50.63;18.47;;;;;;;17.24;43.82;101546.00;5048000;28;20025;-71
2022/03/29 05:59:45;;;;;;;49.63;19.40;;;;;;;16.97;44.11;101556.38;5052719;28;20031;-71
2022/03/29 06:02:11;;;;;;;46.83;18.43;;;;;;;18.53;41.09;101538.72;5047446;28;20025;-71
2022/03/29 06:04:38;;;;;;;54.90;18.37;;;;;;;18.39;41.05;101541.81;5031666;28;20025;-71
2022/03/29 06:07:07;;;;;;;54.53;18.87;;;;;;;18.62;41.06;101548.19;5031169;28;20477;-71
2022/03/29 06:09:34;;;;;;;50.93;18.10;;;;;;;19.31;39.58;101547.66;5033074;28;20037;-71
2022/03/29 06:11:59;;;;;;;54.20;20.37;;;;;;;19.48;38.83;101539.97;5032399;28;20405;-71
2022/03/29 06:14:24;;;;;;;54.00;18.57;;;;;;;19.91;38.16;101537.53;5031670;28;20033;-71
2022/03/29 06:16:50;;;;;;;51.20;19.27;;;;;;;17.97;42.31;101534.31;5034792;28;20440;-71
2022/03/29 06:19:15;;;;;;;55.80;20.67;;;;;;;17.87;42.53;101540.75;5033559;28;20029;-72
2022/03/29 06:21:41;;;;;;;58.87;20.80;;;;;;;18.91;40.78;101541.09;5041842;28;20742;-71
2022/03/29 06:24:08;;;;;;;62.70;20.13;;;;;;;18.22;41.72;101541.50;5030743;28;20041;-71
2022/03/29 06:26:37;;;;;;;60.70;20.27;;;;;;;18.29;41.35;101540.41;5031415;28;20401;-72
2022/03/29 06:29:03;;;;;;;56.87;19.63;;;;;;;18.25;41.80;101544.06;5030193;28;20116;-71
2022/03/29 06:31:29;;;;;;;56.70;19.80;;;;;;;19.19;39.91;101542.78;5029774;28;20036;-71
2022/03/29 06:33:54;;;;;;;48.37;18.17;;;;;;;18.46;41.57;101538.09;5030252;28;20021;-71
2022/03/29 06:36:20;;;;;;;51.03;17.80;;;;;;;17.50;43.23;101545.28;5025544;28;20116;-71
2022/03/29 06:38:45;;;;;;;54.30;18.40;;;;;;;17.34;43.17;101542.22;5028039;28;20071;-71
2022/03/29 06:41:13;;;;;;;45.60;17.77;;;;;;;17.41;43.43;101543.78;5026557;28;20236;-71
2022/03/29 06:43:39;;;;;;;42.03;16.90;;;;;;;16.09;46.75;101546.06;5010725;28;20030;-71
2022/03/29 06:46:07;;;;;;;48.97;18.67;;;;;;;17.23;44.60;101541.66;5038247;28;20056;-71
2022/03/29 06:48:33;;;;;;;50.30;17.47;;;;;;;16.98;45.40;101536.13;5026393;28;20555;-71
2022/03/29 06:50:59;;;;;;;48.37;17.83;;;;;;;16.82;44.79;101532.97;5016617;28;20105;-71
2022/03/29 06:53:24;;;;;;;55.73;18.47;;;;;;;17.63;43.26;101540.53;5029393;28;20275;-72
2022/03/29 06:55:51;;;;;;;42.03;16.20;;;;;;;18.65;41.54;101533.03;5030300;28;20040;-71
2022/03/29 06:58:17;;;;;;;45.17;16.30;;;;;;;17.81;42.88;101529.41;5028265;28;20029;-71
2022/03/29 07:00:42;;;;;;;46.37;18.03;;;;;;;17.16;43.62;101543.56;5029704;28;20029;-71
2022/03/29 07:03:08;;;;;;;53.00;19.77;;;;;;;17.48;42.79;101536.53;5019504;28;20081;-71
2022/03/29 07:05:36;;;;;;;47.20;18.60;;;;;;;17.56;43.86;101539.00;5015950;28;20021;-71
2022/03/29 07:08:02;;;;;;;45.40;16.43;;;;;;;17.20;43.34;101531.13;5026471;28;20032;-71
2022/03/29 07:13:11;;;;;;;43.23;16.80;;;;;;;17.93;42.00;101537.97;5024263;28;20056;-71
2022/03/29 07:15:36;;;;;;;48.50;19.60;;;;;;;19.22;39.38;101537.38;5017085;28;20037;-71
2022/03/29 07:18:01;;;;;;;50.47;19.80;;;;;;;18.52;41.08;101546.72;5029480;28;20044;-72
2022/03/29 07:20:27;;;;;;;52.40;19.80;;;;;;;17.95;41.95;101530.84;4989294;28;1121872;-72
2022/03/29 07:22:53;;;;;;;50.67;19.23;;;;;;;18.69;40.73;101532.97;5030770;28;20120;-72
2022/03/29 07:25:20;;;;;;;49.57;18.20;;;;;;;18.67;40.44;101535.66;5030419;28;20025;-72
2022/03/29 07:27:49;;;;;;;49.13;17.33;;;;;;;18.08;41.67;101545.44;5030269;28;20025;-72
2022/03/29 07:30:15;;;;;;;45.50;17.67;;;;;;;18.59;41.19;101532.41;5030416;28;20751;-72
2022/03/29 07:32:48;;;;;;;53.27;17.63;;;;;;;19.97;38.13;101534.63;5030101;28;20112;-72
2022/03/29 07:35:14;;;;;;;;;;;;;;;20.06;37.91;101528.13;5030773;28;20040;-72
2022/03/29 07:37:40;;;;;;;53.27;18.40;;;;;;;19.45;38.53;101528.59;5031805;28;19919;-72
2022/03/29 07:40:08;;;;;;;54.40;19.53;;;;;;;18.70;40.29;101534.66;5029467;28;20112;-71
2022/03/29 07:42:35;;;;;;;47.53;20.50;;;;;;;18.99;40.12;101525.78;5030168;28;20021;-71
2022/03/29 07:45:03;;;;;;;53.10;21.47;;;;;;;18.72;39.93;101528.41;5031801;28;20048;-71
2022/03/29 07:47:29;;;;;;;46.37;18.27;;;;;;;16.97;43.23;101540.53;5029800;28;20025;-72
2022/03/29 07:49:55;;;;;;;51.10;18.00;;;;;;;18.07;41.20;101530.47;5031321;28;20484;-71
2022/03/29 07:52:21;;;;;;;46.53;18.37;;;;;;;18.18;40.40;101531.94;5030240;28;20128;-71
2022/03/29 07:54:46;;;;;;;47.90;19.90;;;;;;;18.26;40.86;101532.56;5031101;28;20532;-71
2022/03/29 07:57:12;;;;;;;43.43;16.67;;;;;;;19.06;39.04;101529.09;5030026;28;20029;-72
2022/03/29 07:59:38;;;;;;;44.17;17.83;;;;;;;19.65;38.08;101535.84;5029544;28;20021;-71
2022/03/29 08:02:06;;;;;;;35.43;15.93;;;;;;;18.34;39.57;101538.47;5031516;28;20033;-71
2022/03/29 08:04:32;;;;;;;40.03;17.67;;;;;;;18.28;40.39;101533.38;5030113;28;20095;-72
2022/03/29 08:06:59;;;;;;;34.13;15.17;;;;;;;18.99;39.15;101531.09;5029569;28;20115;-72
2022/03/29 08:09:28;;;;;;;42.17;16.67;;;;;;;19.55;37.33;101530.00;5029594;28;20359;-72
2022/03/29 08:11:55;;;;;;;40.67;16.37;;;;;;;19.61;37.77;101526.25;5032519;28;20446;-72
2022/03/29 08:14:25;;;;;;;39.73;16.20;;;;;;;19.23;37.98;101528.50;5035567;28;20036;-71
2022/03/29 08:16:55;;;;;;;34.67;15.33;;;;;;;18.96;37.83;101532.06;5030151;28;20032;-71
2022/03/29 08:19:21;;;;;;;38.90;15.50;;;;;;;19.03;37.92;101519.47;5031534;28;20063;-71
2022/03/29 08:21:49;;;;;;;31.90;14.80;;;;;;;18.28;39.33;101528.06;5027727;28;20049;-72
2022/03/29 08:24:21;;;;;;;37.17;15.10;;;;;;;19.45;36.48;101518.88;5039127;28;20020;-71
2022/03/29 08:26:48;;;;;;;35.60;14.70;;;;;;;18.81;38.22;101524.59;5042166;28;20030;-71
2022/03/29 08:29:17;;;;;;;35.50;14.63;;;;;;;19.83;36.81;101519.25;5029160;28;20033;-71
2022/03/29 08:31:44;;;;;;;37.73;15.93;;;;;;;20.16;36.04;101525.97;5036415;28;20021;-71
2022/03/29 08:34:11;;;;;;;38.57;16.13;;;;;;;17.70;40.70;101536.81;5044635;28;20089;-72
2022/03/29 08:36:38;;;;;;;35.10;14.53;;;;;;;19.22;37.99;101529.41;5041365;28;20029;-71
2022/03/29 08:39:04;;;;;;;34.10;15.97;;;;;;;18.22;39.58;101530.94;5032321;28;20022;-72
2022/03/29 08:41:36;;;;;;;39.10;17.33;;;;;;;19.76;36.79;101517.72;5049550;28;20025;-72
2022/03/29 08:44:01;;;;;;;37.77;17.07;;;;;;;19.73;36.83;101517.84;5030478;28;20033;-72
2022/03/29 08:46:32;;;;;;;34.17;16.33;;;;;;;18.12;39.44;101523.25;5026149;28;20481;-71
2022/03/29 08:48:59;;;;;;;36.83;16.27;;;;;;;19.35;37.78;101517.47;5024557;28;20094;-72
2022/03/29 08:51:24;;;;;;;38.97;16.87;;;;;;;19.00;37.83;101522.25;5027542;28;20330;-71
2022/03/29 08:53:50;;;;;;;34.73;16.00;;;;;;;19.13;37.77;101528.81;5028950;28;20025;-71
2022/03/29 08:56:15;;;;;;;37.47;14.50;;;;;;;19.55;36.61;101516.75;5031469;28;20152;-72
2022/03/29 08:58:41;;;;;;;33.13;15.07;;;;;;;19.54;36.66;101514.16;5026226;28;20022;-72
2022/03/29 09:01:06;;;;;;;39.83;18.23;;;;;;;18.98;38.13;101518.75;5009114;28;20546;-71
2022/03/29 09:03:32;;;;;;;39.93;15.67;;;;;;;19.67;36.33;101518.06;5014947;28;20041;-72
2022/03/29 09:06:08;;;;;;;34.20;15.10;;;;;;;20.25;35.88;101527.38;5036173;28;20024;-72
2022/03/29 09:08:44;;;;;;;41.07;16.00;;;;;;;20.29;36.04;101521.03;5034066;28;20032;-72
2022/03/29 09:11:10;;;;;;;37.37;16.47;;;;;;;20.82;34.64;101523.31;5028211;28;20025;-72
2022/03/29 09:13:35;;;;;;;34.73;15.90;;;;;;;20.80;34.51;101511.91;5030451;28;20022;-72
2022/03/29 09:16:02;;;;;;;33.77;15.87;;;;;;;19.85;35.57;101515.69;5030270;28;20034;-71
2022/03/29 09:18:29;;;;;;;37.03;15.70;;;;;;;20.11;35.51;101512.00;5028569;28;20032;-72
2022/03/29 09:21:13;;;;;;;33.70;16.33;;;;;;;20.37;35.34;101510.13;5029067;28;20036;-72
2022/03/29 09:23:39;;;;;;;37.03;14.47;;;;;;;19.07;37.61;101507.84;5030194;28;20030;-72
2022/03/29 09:26:05;;;;;;;34.80;14.63;;;;;;;19.88;36.47;101507.59;5029651;28;20478;-71
2022/03/29 09:28:35;;;;;;;33.83;14.97;;;;;;;19.21;37.41;101512.66;5041083;28;20369;-72
2022/03/29 09:31:01;;;;;;;35.53;16.10;;;;;;;20.57;35.16;101509.31;5031935;28;20136;-71
2022/03/29 09:33:32;;;;;;;40.47;16.17;;;;;;;19.60;36.22;101511.25;5029913;28;20112;-71
2022/03/29 09:36:08;;;;;;;36.87;14.97;;;;;;;20.16;35.38;101505.59;5032942;28;20051;-72
2022/03/29 09:38:42;;;;;;;41.13;16.40;;;;;;;20.08;35.57;101513.00;5040631;28;20030;-71
2022/03/29 09:41:32;;;;;;;37.37;15.60;;;;;;;20.21;35.07;101512.50;5028331;28;20096;-72
2022/03/29 09:44:08;;;;;;;36.80;15.80;;;;;;;20.99;34.26;101511.09;5033167;28;20501;-71
2022/03/29 09:47:14;;;;;;;37.70;17.33;;;;;;;21.35;33.85;101502.47;5022674;28;20058;-72
2022/03/29 09:49:54;;;;;;;41.30;17.20;;;;;;;19.37;36.81;101515.63;4990520;28;20033;-71
2022/03/29 09:52:44;;;;;;;37.83;16.00;;;;;;;20.47;35.54;101509.69;4989411;28;20484;-71
2022/03/29 09:55:17;;;;;;;35.20;16.73;;;;;;;18.87;37.85;101510.28;5010149;28;20481;-72
2022/03/29 09:57:47;;;;;;;33.30;15.17;;;;;;;20.01;35.64;101503.56;5028541;28;20048;-71
2022/03/29 10:00:39;;;;;;;36.03;15.77;;;;;;;19.73;36.34;101496.63;5030161;28;20044;-71
2022/03/29 10:03:09;;;;;;;37.42;15.98;;;;;;;20.81;35.05;101491.50;4977407;28;20492;-71
2022/03/29 10:05:37;;;;;;;34.20;15.67;;;;;;;20.13;36.33;101494.25;5028510;28;20030;-71
2022/03/29 10:10:54;;;;;;;34.70;16.63;;;;;;;20.97;34.92;101481.09;5032744;28;20079;-71
2022/03/29 10:13:23;;;;;;;35.47;16.43;;;;;;;20.92;35.32;101483.06;5027865;28;20112;-71
2022/03/29 10:15:50;;;;;;;33.87;15.20;;;;;;;20.17;35.78;101478.13;5034724;28;20506;-71
2022/03/29 10:18:16;;;;;;;40.67;16.47;;;;;;;21.50;34.50;101469.84;5036120;28;20175;-72
2022/03/29 10:20:42;;;;;;;38.63;18.13;;;;;;;22.11;33.20;101470.56;5044828;28;20036;-71
2022/03/29 10:23:07;;;;;;;35.40;15.70;;;;;;;22.12;33.71;101469.63;5030391;28;20469;-71
2022/03/29 10:25:34;;;;;;;33.83;16.23;;;;;;;21.60;33.53;101474.78;5035133;28;20496;-71
2022/03/29 10:28:01;;;;;;;39.47;17.60;;;;;;;22.08;33.16;101476.03;5033412;28;20069;-71
2022/03/29 10:30:35;;;;;;;37.40;15.87;;;;;;;20.70;34.80;101480.47;5031525;28;20037;-71
2022/03/29 10:33:23;;;;;;;28.13;14.10;;;;;;;19.53;36.76;101488.56;5040647;28;20469;-71
2022/03/29 10:36:02;;;;;;;36.53;16.70;;;;;;;21.25;34.37;101475.41;5031575;28;20021;-71
2022/03/29 10:38:46;;;;;;;38.90;17.10;;;;;;;21.19;34.37;101473.88;5044861;28;20080;-71
2022/03/29 10:41:29;;;;;;;35.43;16.80;;;;;;;21.41;34.35;101475.56;5031013;28;20107;-70
2022/03/29 10:44:08;;;;;;;37.03;15.50;;;;;;;20.96;35.07;101479.34;5024257;28;20035;-70
2022/03/29 10:46:51;;;;;;;41.00;16.67;;;;;;;21.34;33.60;101474.13;5032545;28;20074;-70
2022/03/29 10:49:20;;;;;;;37.30;16.33;;;;;;;21.06;34.48;101469.19;5029005;28;20074;-70
2022/03/29 10:51:49;;;;;;;33.63;15.53;;;;;;;21.13;34.55;101466.19;5030108;28;20025;-70
2022/03/29 10:54:41;;;;;;;33.70;15.10;;;;;;;21.91;33.22;101457.34;5029324;28;20013;-70
2022/03/29 10:57:14;;;;;;;39.53;17.27;;;;;;;21.98;33.37;101458.78;5031381;28;20041;-71
2022/03/29 10:59:39;;;;;;;31.98;16.05;;;;;;;21.57;34.02;101458.94;5031417;28;20464;-71
2022/03/29 11:02:18;;;;;;;36.93;17.07;;;;;;;22.06;33.72;101456.63;5032342;28;20036;-70
2022/03/29 11:05:05;;;;;;;40.60;17.50;;;;;;;21.61;34.12;101445.44;5031745;28;20041;-71
2022/03/29 11:07:53;;;;;;;41.27;17.07;;;;;;;23.40;31.18;101446.28;5031411;28;20053;-71
2022/03/29 11:10:21;;;;;;;34.05;15.32;;;;;;;22.22;32.58;101445.25;5031918;28;20026;-71
2022/03/29 11:12:49;;;;;;;37.30;17.85;;;;;;;22.50;32.43;101440.28;5030061;28;20025;-71
2022/03/29 11:15:35;;;;;;;35.50;16.15;;;;;;;23.62;30.71;101439.78;5036535;28;20449;-71
2022/03/29 11:18:04;;;;;;;31.92;16.88;;;;;;;23.07;31.25;101439.13;5035233;28;20037;-70
2022/03/29 11:20:32;;;;;;;35.38;15.20;;;;;;;24.79;29.21;101427.72;5032126;28;20101;-71
2022/03/29 11:23:06;;;;;;;35.05;16.10;;;;;;;26.12;27.67;101423.88;5032873;28;20484;-71